Time;durP1;ratioP1;P1;durP2;ratioP2;P2;SDS_P1;SDS_P2;PMS_P1;PMS_P2;Temp;Humidity;BMP_temperature;BMP_pressure;BME280_temperature;BME280_humidity;BME280_pressure;Samples;Min_cycle;Max_cycle;Signal;HPM_P1;HPM_P2
2024/01/30 00:01:00;;;;;;;3.85;3.50;;;17.40;54.50;;;;;;5051055;28;20179;-73
2024/01/30 00:03:26;;;;;;;4.63;4.18;;;17.40;54.50;;;;;;5051304;28;20174;-73
2024/01/30 00:05:52;;;;;;;4.43;4.03;;;17.40;54.50;;;;;;5051776;28;20301;-74
2024/01/30 00:08:17;;;;;;;4.18;3.80;;;17.30;54.50;;;;;;5050943;28;20220;-74
2024/01/30 00:10:43;;;;;;;4.00;3.70;;;17.30;54.50;;;;;;5051747;28;20533;-73
2024/01/30 00:13:08;;;;;;;4.43;3.70;;;17.30;54.50;;;;;;5051532;28;20248;-73
2024/01/30 00:15:34;;;;;;;5.15;3.80;;;17.30;54.50;;;;;;5050466;28;20540;-73
2024/01/30 00:18:00;;;;;;;4.25;3.90;;;17.30;54.40;;;;;;5051820;28;20175;-73
2024/01/30 00:20:25;;;;;;;4.70;4.30;;;17.30;54.40;;;;;;5050834;28;20179;-73
2024/01/30 00:22:51;;;;;;;4.70;4.30;;;17.30;54.40;;;;;;5049954;28;20611;-73
2024/01/30 00:25:16;;;;;;;4.47;4.13;;;17.20;54.40;;;;;;5050477;28;20171;-73
2024/01/30 00:27:42;;;;;;;4.60;4.20;;;17.30;54.40;;;;;;5049941;28;20209;-73
2024/01/30 00:30:08;;;;;;;4.35;3.95;;;17.20;54.40;;;;;;5050921;28;20517;-74
2024/01/30 00:32:34;;;;;;;4.80;4.40;;;17.20;54.40;;;;;;5050780;28;20172;-72
2024/01/30 00:34:59;;;;;;;3.95;3.65;;;17.20;54.40;;;;;;5050207;28;20708;-72
2024/01/30 00:37:25;;;;;;;4.22;3.85;;;17.20;54.40;;;;;;5050723;28;20175;-73
2024/01/30 00:39:50;;;;;;;4.20;3.80;;;17.20;54.30;;;;;;5050713;28;20650;-73
2024/01/30 00:42:16;;;;;;;4.35;3.92;;;17.20;54.40;;;;;;5050012;28;20271;-74
2024/01/30 00:44:42;;;;;;;4.43;4.03;;;17.20;54.30;;;;;;5052711;28;20261;-72
2024/01/30 00:47:07;;;;;;;4.65;4.25;;;17.20;54.30;;;;;;5053089;28;20203;-73
2024/01/30 00:49:33;;;;;;;5.45;4.22;;;17.10;54.30;;;;;;5053578;28;20250;-73
2024/01/30 00:51:58;;;;;;;3.80;3.50;;;17.10;54.20;;;;;;5054285;28;20178;-74
2024/01/30 00:54:24;;;;;;;4.53;4.13;;;17.10;54.30;;;;;;5053883;28;20229;-74
2024/01/30 00:56:49;;;;;;;4.25;3.85;;;17.10;54.30;;;;;;5053689;28;20542;-73
2024/01/30 00:59:15;;;;;;;3.83;3.53;;;17.10;54.30;;;;;;5054073;28;20163;-74
2024/01/30 01:01:40;;;;;;;4.75;4.35;;;17.10;54.30;;;;;;5053740;28;20323;-73
2024/01/30 01:04:07;;;;;;;4.15;3.78;;;17.10;54.20;;;;;;5053244;28;20587;-74
2024/01/30 01:06:32;;;;;;;4.20;3.80;;;17.10;54.30;;;;;;5053662;28;20210;-73
2024/01/30 01:08:58;;;;;;;4.20;3.80;;;17.00;54.20;;;;;;5054184;28;20168;-74
2024/01/30 01:11:23;;;;;;;4.25;3.85;;;17.00;54.20;;;;;;5052971;28;20179;-74
2024/01/30 01:13:49;;;;;;;4.32;3.92;;;17.00;54.20;;;;;;5053826;28;20672;-73
2024/01/30 01:16:14;;;;;;;4.28;3.90;;;17.00;54.80;;;;;;5053809;28;20190;-74
2024/01/30 01:18:40;;;;;;;5.00;4.18;;;17.00;54.20;;;;;;5052915;28;20616;-73
2024/01/30 01:21:06;;;;;;;4.50;4.10;;;17.00;54.20;;;;;;5053861;28;20175;-73
2024/01/30 01:23:31;;;;;;;4.10;3.78;;;17.00;54.80;;;;;;5053290;28;20174;-74
2024/01/30 01:25:59;;;;;;;4.30;3.90;;;17.00;54.20;;;;;;5052795;28;20198;-74
2024/01/30 01:28:25;;;;;;;4.35;3.97;;;16.90;54.20;;;;;;5053181;28;20511;-73
2024/01/30 01:30:51;;;;;;;4.07;3.72;;;16.90;54.10;;;;;;5053000;28;20269;-73
2024/01/30 01:33:17;;;;;;;4.68;4.13;;;16.90;54.20;;;;;;5053507;28;20206;-73
2024/01/30 01:35:42;;;;;;;4.35;3.83;;;17.00;54.20;;;;;;5053624;28;20175;-72
2024/01/30 01:38:08;;;;;;;4.22;3.83;;;16.90;54.20;;;;;;5052704;28;20182;-73
2024/01/30 01:40:34;;;;;;;4.00;3.70;;;16.90;54.20;;;;;;5053140;28;20183;-73
2024/01/30 01:43:03;;;;;;;4.25;3.88;;;16.90;54.20;;;;;;5053276;28;20224;-73
2024/01/30 01:45:28;;;;;;;3.78;3.47;;;16.90;54.20;;;;;;5052386;28;20285;-73
2024/01/30 01:47:54;;;;;;;4.35;3.95;;;16.90;54.20;;;;;;5053392;28;20313;-73
2024/01/30 01:50:20;;;;;;;3.80;3.50;;;16.90;54.20;;;;;;5053200;28;20605;-73
2024/01/30 01:52:49;;;;;;;3.88;3.58;;;16.90;54.20;;;;;;5051425;28;20183;-73
2024/01/30 01:55:15;;;;;;;4.18;3.78;;;16.90;54.20;;;;;;5034540;28;20674;-74
2024/01/30 01:57:44;;;;;;;3.92;3.63;;;16.80;54.10;;;;;;5052609;28;20183;-74
2024/01/30 02:00:10;;;;;;;3.83;3.47;;;16.80;54.10;;;;;;5051421;28;20175;-74
2024/01/30 02:02:36;;;;;;;3.60;3.30;;;16.80;54.10;;;;;;5052943;28;20175;-73
2024/01/30 02:05:01;;;;;;;4.10;3.70;;;16.80;54.10;;;;;;5053254;28;20198;-74
2024/01/30 02:07:27;;;;;;;3.90;3.60;;;16.80;54.10;;;;;;5052018;28;20212;-73
2024/01/30 02:09:55;;;;;;;4.22;3.92;;;16.80;54.10;;;;;;5051650;28;20266;-73
2024/01/30 02:12:21;;;;;;;4.43;4.03;;;16.80;54.10;;;;;;5052534;28;20181;-74
2024/01/30 02:14:47;;;;;;;4.07;3.67;;;16.80;54.10;;;;;;5052569;28;20257;-73
2024/01/30 02:17:19;;;;;;;3.92;3.53;;;16.80;54.10;;;;;;5053084;28;20570;-73
2024/01/30 02:19:44;;;;;;;4.30;3.90;;;16.80;54.10;;;;;;5053119;28;20175;-73
2024/01/30 02:22:13;;;;;;;3.75;3.47;;;16.80;54.20;;;;;;5052522;28;20174;-73
2024/01/30 02:24:38;;;;;;;4.35;3.95;;;16.70;54.10;;;;;;5051240;28;20240;-73
2024/01/30 02:27:04;;;;;;;4.10;3.80;;;16.70;54.10;;;;;;5052334;28;20682;-74
2024/01/30 02:29:29;;;;;;;3.47;3.17;;;16.70;54.10;;;;;;5051763;28;20267;-72
2024/01/30 02:31:55;;;;;;;4.05;3.70;;;16.70;54.10;;;;;;5052544;28;20302;-71
2024/01/30 02:34:21;;;;;;;3.70;3.40;;;16.70;54.10;;;;;;5051936;28;20235;-72
2024/01/30 02:36:46;;;;;;;3.83;3.53;;;16.70;54.10;;;;;;5052419;28;20621;-72
2024/01/30 02:39:12;;;;;;;3.65;3.35;;;16.70;54.10;;;;;;5052583;28;20175;-72
2024/01/30 02:41:37;;;;;;;3.83;3.53;;;16.70;54.10;;;;;;5051126;28;20688;-72
2024/01/30 02:44:03;;;;;;;3.67;3.38;;;16.70;54.10;;;;;;5052014;28;20171;-72
2024/01/30 02:46:29;;;;;;;4.10;3.45;;;16.70;54.10;;;;;;5050503;28;20228;-72
2024/01/30 02:48:54;;;;;;;3.55;3.25;;;16.70;54.10;;;;;;5051580;28;20580;-72
2024/01/30 02:51:20;;;;;;;4.15;3.75;;;16.70;54.10;;;;;;5051861;28;20167;-73
2024/01/30 02:53:45;;;;;;;3.85;3.55;;;16.60;54.10;;;;;;5052032;28;20183;-73
2024/01/30 02:56:13;;;;;;;3.60;3.30;;;16.70;54.20;;;;;;5050952;28;20235;-73
2024/01/30 02:58:39;;;;;;;4.35;3.70;;;16.70;54.10;;;;;;5051755;28;20521;-72
2024/01/30 03:01:05;;;;;;;3.63;3.17;;;16.60;54.10;;;;;;5052011;28;20184;-73
2024/01/30 03:03:30;;;;;;;4.00;3.70;;;16.60;54.10;;;;;;5050740;28;20571;-73
2024/01/30 03:05:56;;;;;;;3.80;3.50;;;16.60;54.10;;;;;;5051849;28;20219;-73
2024/01/30 03:08:21;;;;;;;4.82;4.10;;;16.60;54.10;;;;;;5051449;28;20178;-73
2024/01/30 03:10:47;;;;;;;4.00;3.67;;;16.60;54.10;;;;;;5051067;28;20198;-73
2024/01/30 03:13:12;;;;;;;3.72;3.42;;;16.60;54.10;;;;;;5051942;28;20179;-73
2024/01/30 03:15:38;;;;;;;3.72;3.42;;;16.60;54.10;;;;;;5051517;28;20227;-72
2024/01/30 03:18:04;;;;;;;3.30;3.00;;;16.50;54.00;;;;;;5051194;28;20175;-73
2024/01/30 03:20:29;;;;;;;3.60;3.30;;;16.60;54.20;;;;;;5051421;28;20171;-72
2024/01/30 03:22:55;;;;;;;3.33;3.13;;;16.50;54.10;;;;;;5051692;28;20597;-73
2024/01/30 03:25:21;;;;;;;3.78;3.47;;;16.50;54.10;;;;;;5050513;28;20178;-74
2024/01/30 03:27:46;;;;;;;3.58;3.28;;;16.50;54.10;;;;;;5051713;28;20193;-73
2024/01/30 03:30:12;;;;;;;3.55;3.28;;;16.60;54.20;;;;;;5051643;28;20228;-73
2024/01/30 03:32:37;;;;;;;3.80;3.50;;;16.50;54.10;;;;;;5050487;28;20634;-72
2024/01/30 03:35:03;;;;;;;3.92;3.63;;;16.50;54.10;;;;;;5051527;28;20183;-72
2024/01/30 03:37:29;;;;;;;3.28;3.08;;;16.50;54.10;;;;;;5050471;28;20201;-71
2024/01/30 03:39:55;;;;;;;3.60;3.30;;;16.50;54.10;;;;;;5051469;28;20631;-72
2024/01/30 03:42:20;;;;;;;3.80;3.50;;;16.50;54.20;;;;;;5051251;28;20183;-73
2024/01/30 03:44:46;;;;;;;3.72;3.42;;;16.50;54.20;;;;;;5050902;28;20179;-72
2024/01/30 03:47:12;;;;;;;3.47;3.17;;;16.50;54.20;;;;;;5051289;28;20646;-73
2024/01/30 03:49:37;;;;;;;3.60;3.30;;;16.50;54.10;;;;;;5050983;28;20202;-72
2024/01/30 03:52:03;;;;;;;3.60;3.28;;;16.40;54.10;;;;;;5050601;28;20171;-73
2024/01/30 03:54:32;;;;;;;4.03;3.63;;;16.40;54.10;;;;;;5050673;28;20301;-73
2024/01/30 03:56:57;;;;;;;3.63;3.33;;;16.50;54.20;;;;;;5051462;28;20193;-73
2024/01/30 03:59:24;;;;;;;3.38;3.08;;;16.40;54.10;;;;;;5050119;28;20611;-73
2024/01/30 04:01:51;;;;;;;3.80;3.50;;;16.50;54.20;;;;;;5051252;28;20178;-73
2024/01/30 04:04:17;;;;;;;3.78;3.40;;;16.40;54.10;;;;;;5051072;28;20183;-73
2024/01/30 04:06:44;;;;;;;3.47;3.17;;;16.40;54.10;;;;;;5050424;28;20229;-74
2024/01/30 04:09:09;;;;;;;4.20;3.35;;;16.40;54.10;;;;;;5051096;28;20646;-73
2024/01/30 04:11:35;;;;;;;3.45;3.20;;;16.40;54.10;;;;;;5051207;28;20219;-73
2024/01/30 04:14:00;;;;;;;3.13;2.83;;;16.40;54.70;;;;;;5050957;28;20282;-73
2024/01/30 04:16:26;;;;;;;3.13;2.92;;;16.40;54.10;;;;;;5051056;28;20274;-73
2024/01/30 04:18:51;;;;;;;4.05;3.72;;;16.40;54.10;;;;;;5052036;28;20175;-72
2024/01/30 04:21:17;;;;;;;3.78;3.47;;;16.40;54.10;;;;;;5054027;28;20183;-73
2024/01/30 04:23:42;;;;;;;3.50;3.22;;;16.40;54.10;;;;;;5054787;28;20650;-73
2024/01/30 04:26:08;;;;;;;3.42;3.13;;;16.40;54.10;;;;;;5054515;28;20218;-73
2024/01/30 04:28:33;;;;;;;3.92;3.63;;;16.40;54.10;;;;;;5053916;28;20175;-73
2024/01/30 04:30:59;;;;;;;3.60;3.30;;;16.40;54.20;;;;;;5054916;28;20171;-72
2024/01/30 04:33:24;;;;;;;3.72;3.42;;;16.30;54.10;;;;;;5054443;28;20530;-73
2024/01/30 04:35:50;;;;;;;3.60;3.17;;;16.40;54.20;;;;;;5053939;28;20556;-72
2024/01/30 04:38:15;;;;;;;3.80;3.50;;;16.30;54.10;;;;;;5054261;28;20689;-74
2024/01/30 04:40:44;;;;;;;3.83;3.53;;;16.40;54.20;;;;;;5054290;28;20163;-73
2024/01/30 04:43:09;;;;;;;3.35;3.05;;;16.30;54.80;;;;;;5054624;28;20171;-72
2024/01/30 04:45:35;;;;;;;3.72;3.42;;;16.30;54.10;;;;;;5054291;28;20210;-72
2024/01/30 04:48:01;;;;;;;3.28;3.08;;;16.30;54.20;;;;;;5053763;28;20179;-73
2024/01/30 04:50:26;;;;;;;4.63;3.33;;;16.30;54.20;;;;;;5054064;28;20171;-72
2024/01/30 04:52:52;;;;;;;3.78;3.47;;;16.30;54.20;;;;;;5054256;28;20177;-73
2024/01/30 04:55:17;;;;;;;3.83;3.50;;;16.30;54.10;;;;;;5052987;28;20215;-73
2024/01/30 04:57:43;;;;;;;3.47;3.28;;;16.30;54.80;;;;;;5054364;28;20179;-72
2024/01/30 05:00:09;;;;;;;3.92;3.63;;;16.30;54.20;;;;;;5054299;28;20171;-73
2024/01/30 05:02:35;;;;;;;4.10;3.40;;;16.30;54.20;;;;;;5053014;28;20171;-72
2024/01/30 05:05:00;;;;;;;3.85;3.55;;;16.20;54.10;;;;;;5054015;28;20186;-72
2024/01/30 05:07:26;;;;;;;3.50;3.20;;;16.30;54.20;;;;;;5053492;28;20302;-73
2024/01/30 05:09:51;;;;;;;3.58;3.28;;;16.30;54.20;;;;;;5053590;28;20183;-72
2024/01/30 05:12:17;;;;;;;4.13;3.20;;;16.30;54.20;;;;;;5053672;28;20222;-75
2024/01/30 05:14:42;;;;;;;3.75;3.45;;;16.30;54.20;;;;;;5053741;28;20179;-72
2024/01/30 05:17:10;;;;;;;3.15;2.92;;;16.30;54.20;;;;;;5053245;28;20193;-73
2024/01/30 05:19:35;;;;;;;3.63;3.33;;;16.30;54.20;;;;;;5053434;28;20180;-72
2024/01/30 05:22:01;;;;;;;3.70;3.40;;;16.20;54.20;;;;;;5053637;28;20316;-72
2024/01/30 05:24:26;;;;;;;2.92;2.72;;;16.20;54.20;;;;;;5052918;28;20211;-73
2024/01/30 05:26:52;;;;;;;3.47;3.17;;;16.20;54.20;;;;;;5053767;28;20245;-73
2024/01/30 05:29:17;;;;;;;3.60;3.30;;;16.20;54.20;;;;;;5053526;28;20255;-73
2024/01/30 05:31:43;;;;;;;3.63;3.33;;;16.20;54.20;;;;;;5051836;28;20254;-73
2024/01/30 05:34:09;;;;;;;3.33;3.03;;;16.20;54.20;;;;;;5053547;28;20278;-72
2024/01/30 05:36:34;;;;;;;3.70;3.40;;;16.20;54.30;;;;;;5053143;28;20623;-72
2024/01/30 05:39:00;;;;;;;3.25;3.00;;;16.20;54.30;;;;;;5052927;28;20658;-72
2024/01/30 05:41:25;;;;;;;3.53;3.03;;;16.20;54.20;;;;;;5053193;28;20182;-72
2024/01/30 05:43:54;;;;;;;3.97;3.58;;;16.20;54.20;;;;;;5053432;28;20172;-73
2024/01/30 05:46:20;;;;;;;3.72;3.38;;;16.20;54.20;;;;;;5052110;28;20620;-73
2024/01/30 05:48:45;;;;;;;3.50;3.20;;;16.20;54.30;;;;;;5053267;28;20210;-73
2024/01/30 05:51:11;;;;;;;3.70;3.40;;;16.20;54.30;;;;;;5052547;28;20665;-73
2024/01/30 05:53:36;;;;;;;3.45;3.15;;;16.20;54.20;;;;;;5053029;28;20669;-73
2024/01/30 05:56:02;;;;;;;3.63;3.33;;;16.20;54.30;;;;;;5052924;28;20630;-75
2024/01/30 05:58:28;;;;;;;3.70;3.40;;;16.20;54.30;;;;;;5052120;28;20175;-72
2024/01/30 06:00:53;;;;;;;3.53;3.22;;;16.20;54.30;;;;;;5053083;28;20271;-73
2024/01/30 06:03:19;;;;;;;3.30;3.00;;;16.20;54.30;;;;;;5052711;28;20176;-73
2024/01/30 06:05:44;;;;;;;3.92;3.63;;;16.20;54.30;;;;;;5052121;28;20206;-74
2024/01/30 06:08:10;;;;;;;3.47;3.17;;;16.20;54.30;;;;;;5053105;28;20175;-75
2024/01/30 06:10:35;;;;;;;3.55;3.25;;;16.10;54.30;;;;;;5052700;28;20501;-73
2024/01/30 06:13:01;;;;;;;4.22;3.63;;;16.20;54.30;;;;;;5052178;28;20174;-74
2024/01/30 06:15:27;;;;;;;2.95;2.75;;;16.10;54.30;;;;;;5052355;28;20262;-73
2024/01/30 06:17:52;;;;;;;3.80;3.50;;;16.10;54.30;;;;;;5052703;28;20176;-73
2024/01/30 06:20:18;;;;;;;3.55;3.25;;;16.10;54.30;;;;;;5051418;28;20167;-74
2024/01/30 06:22:43;;;;;;;3.38;3.17;;;16.10;54.30;;;;;;5052832;28;20171;-73
2024/01/30 06:25:10;;;;;;;3.47;3.17;;;16.00;54.20;;;;;;5052584;28;20171;-74
2024/01/30 06:27:35;;;;;;;3.65;3.35;;;16.10;54.30;;;;;;5051489;28;20276;-74
2024/01/30 06:30:01;;;;;;;3.28;2.97;;;16.10;54.30;;;;;;5052376;28;20171;-74
2024/01/30 06:32:28;;;;;;;3.47;3.17;;;16.10;54.30;;;;;;5052051;28;20190;-72
2024/01/30 06:34:54;;;;;;;3.60;3.30;;;16.10;54.30;;;;;;5051654;28;20179;-72
2024/01/30 06:37:19;;;;;;;3.80;3.50;;;16.00;54.20;;;;;;5052170;28;20254;-73
2024/01/30 06:39:45;;;;;;;3.85;3.55;;;16.10;54.30;;;;;;5052078;28;20170;-73
2024/01/30 06:42:11;;;;;;;3.45;3.15;;;16.10;54.30;;;;;;5051383;28;20175;-73
2024/01/30 06:44:37;;;;;;;3.17;2.97;;;16.00;54.30;;;;;;5051982;28;20236;-72
2024/01/30 06:47:02;;;;;;;3.83;3.53;;;16.00;54.30;;;;;;5052166;28;20203;-72
2024/01/30 06:49:28;;;;;;;3.38;3.08;;;16.00;54.20;;;;;;5051075;28;20175;-73
2024/01/30 06:51:53;;;;;;;3.70;3.40;;;16.10;54.30;;;;;;5051981;28;20178;-74
2024/01/30 06:54:19;;;;;;;3.53;3.22;;;16.10;54.30;;;;;;5051599;28;20215;-73
2024/01/30 06:56:45;;;;;;;3.35;3.13;;;16.10;54.20;;;;;;5051583;28;20198;-74
2024/01/30 06:59:10;;;;;;;3.40;3.08;;;16.20;54.20;;;;;;5051836;28;20171;-74
2024/01/30 07:01:36;;;;;;;3.38;3.08;;;16.20;54.10;;;;;;5050912;28;20607;-73
2024/01/30 07:04:01;;;;;;;3.15;2.95;;;16.20;54.20;;;;;;5051746;28;20175;-75
2024/01/30 07:06:27;;;;;;;3.72;3.42;;;16.10;54.10;;;;;;5051150;28;20293;-73
2024/01/30 07:08:52;;;;;;;3.85;3.00;;;16.10;54.10;;;;;;5051268;28;20265;-73
2024/01/30 07:11:19;;;;;;;3.20;3.00;;;16.10;54.10;;;;;;5051255;28;20263;-73
2024/01/30 07:13:45;;;;;;;3.88;3.58;;;16.10;54.10;;;;;;5051752;28;20209;-73
2024/01/30 07:16:14;;;;;;;3.38;3.13;;;16.10;54.10;;;;;;5051074;28;20690;-73
2024/01/30 07:18:39;;;;;;;3.88;3.58;;;16.20;54.30;;;;;;5051159;28;20262;-72
2024/01/30 07:21:05;;;;;;;3.50;3.28;;;16.10;54.20;;;;;;5051640;28;20596;-74
2024/01/30 07:23:30;;;;;;;5.68;3.67;;;16.10;54.30;;;;;;5050543;28;20175;-73
2024/01/30 07:25:56;;;;;;;3.45;3.25;;;16.10;54.20;;;;;;5051275;28;20301;-73
2024/01/30 07:28:22;;;;;;;3.90;3.53;;;16.10;54.20;;;;;;5051355;28;20304;-73
2024/01/30 07:30:48;;;;;;;3.53;2.92;;;16.20;54.20;;;;;;5050904;28;20171;-73
2024/01/30 07:33:13;;;;;;;3.70;3.40;;;16.10;54.20;;;;;;5051317;28;20606;-72
2024/01/30 07:35:39;;;;;;;3.38;3.13;;;16.20;54.20;;;;;;5051016;28;20182;-72
2024/01/30 07:38:04;;;;;;;3.63;3.33;;;16.20;54.20;;;;;;5050808;28;20179;-73
2024/01/30 07:40:30;;;;;;;3.78;3.17;;;16.20;54.20;;;;;;5050944;28;20171;-73
2024/01/30 07:42:55;;;;;;;4.03;3.72;;;16.10;54.20;;;;;;5051399;28;20240;-74
2024/01/30 07:45:22;;;;;;;4.20;3.33;;;16.10;54.20;;;;;;5050320;28;20199;-73
2024/01/30 07:47:49;;;;;;;3.50;3.20;;;16.20;54.20;;;;;;5051151;28;20201;-73
2024/01/30 07:50:15;;;;;;;3.50;3.20;;;16.10;54.20;;;;;;5051542;28;20175;-74
2024/01/30 07:52:40;;;;;;;3.80;3.50;;;16.10;54.30;;;;;;5050520;28;20365;-74
2024/01/30 07:55:07;;;;;;;4.07;3.60;;;16.10;54.30;;;;;;5054026;28;20321;-74
2024/01/30 07:57:34;;;;;;;3.75;3.45;;;16.20;54.30;;;;;;5055055;28;20175;-73
2024/01/30 08:00:00;;;;;;;3.70;3.40;;;16.20;54.20;;;;;;5054621;28;20175;-74
2024/01/30 08:02:25;;;;;;;4.05;3.75;;;16.20;54.30;;;;;;5055031;28;20175;-73
2024/01/30 08:04:51;;;;;;;3.83;3.35;;;16.20;54.20;;;;;;5054544;28;20265;-73
2024/01/30 08:07:17;;;;;;;4.20;3.42;;;16.30;54.20;;;;;;5055142;28;20214;-73
2024/01/30 08:09:43;;;;;;;3.53;3.22;;;16.30;54.10;;;;;;5055553;28;20178;-73
2024/01/30 08:12:09;;;;;;;3.75;3.45;;;16.30;54.10;;;;;;5054641;28;20258;-75
2024/01/30 08:14:34;;;;;;;3.47;3.20;;;16.30;54.10;;;;;;5054791;28;20253;-72
2024/01/30 08:17:00;;;;;;;3.65;3.33;;;16.30;54.10;;;;;;5055095;28;20263;-72
2024/01/30 08:19:25;;;;;;;3.78;3.47;;;16.40;54.10;;;;;;5054011;28;20176;-73
2024/01/30 08:21:51;;;;;;;3.72;3.42;;;16.40;54.00;;;;;;5054920;28;20592;-72
2024/01/30 08:24:16;;;;;;;3.53;3.30;;;16.40;54.60;;;;;;5054642;28;20689;-74
2024/01/30 08:26:42;;;;;;;3.58;3.30;;;16.40;53.90;;;;;;5053989;28;20213;-72
2024/01/30 08:29:07;;;;;;;3.47;3.17;;;16.50;54.50;;;;;;5054964;28;20674;-75
2024/01/30 08:31:33;;;;;;;3.25;2.95;;;16.50;53.90;;;;;;5054474;28;20224;-72
2024/01/30 08:33:58;;;;;;;3.10;2.90;;;16.50;53.80;;;;;;5054226;28;20175;-72
2024/01/30 08:36:25;;;;;;;3.55;3.25;;;16.50;53.80;;;;;;5053990;28;20187;-70
2024/01/30 08:38:50;;;;;;;3.38;3.05;;;16.40;53.80;;;;;;5054607;28;20171;-67
2024/01/30 08:41:16;;;;;;;3.90;3.40;;;16.50;54.10;;;;;;5053834;28;20171;-71
2024/01/30 08:43:42;;;;;;;4.97;3.05;;;16.50;54.00;;;;;;5054613;28;20172;-68
2024/01/30 08:46:07;;;;;;;3.65;3.35;;;16.40;54.10;;;;;;5054318;28;20201;-68
2024/01/30 08:48:35;;;;;;;3.67;3.00;;;16.40;54.20;;;;;;5053939;28;20658;-66
2024/01/30 08:51:01;;;;;;;5.70;3.85;;;16.50;54.40;;;;;;5054599;28;20172;-68
2024/01/30 08:53:27;;;;;;;4.85;3.63;;;16.50;54.20;;;;;;5056131;28;20249;-69
2024/01/30 08:55:52;;;;;;;4.13;3.35;;;16.50;54.30;;;;;;5057105;28;20237;-69
2024/01/30 08:58:19;;;;;;;4.72;3.50;;;16.50;54.30;;;;;;5059627;28;20167;-70
2024/01/30 09:00:44;;;;;;;3.80;3.50;;;16.60;54.30;;;;;;5057529;28;20304;-68
2024/01/30 09:03:10;;;;;;;4.03;3.55;;;16.60;54.30;;;;;;5056420;28;20215;-71
2024/01/30 09:05:35;;;;;;;4.53;3.20;;;16.60;54.30;;;;;;5054039;28;20719;-70
2024/01/30 09:08:01;;;;;;;3.85;3.17;;;16.60;54.30;;;;;;5053769;28;20176;-69
2024/01/30 09:10:26;;;;;;;3.83;3.20;;;16.60;54.40;;;;;;5055670;28;20955;-70
2024/01/30 09:12:52;;;;;;;3.67;3.22;;;16.70;54.60;;;;;;5053828;28;20572;-69
2024/01/30 09:15:18;;;;;;;3.83;3.50;;;16.70;54.60;;;;;;5052827;28;20217;-70
2024/01/30 09:17:44;;;;;;;3.78;3.10;;;16.70;54.60;;;;;;5053929;28;20198;-69
2024/01/30 09:20:10;;;;;;;4.80;3.47;;;16.70;54.60;;;;;;5053753;28;20630;-67
2024/01/30 09:22:35;;;;;;;5.05;3.47;;;16.60;54.60;;;;;;5052838;28;20240;-68
2024/01/30 09:25:01;;;;;;;3.30;3.00;;;16.70;54.70;;;;;;5053572;28;20630;-67
2024/01/30 09:27:26;;;;;;;3.35;3.05;;;16.60;54.70;;;;;;5053063;28;20215;-67
2024/01/30 09:29:52;;;;;;;3.33;2.85;;;16.60;54.80;;;;;;5052639;28;20175;-69
2024/01/30 09:32:21;;;;;;;3.80;3.25;;;16.60;54.90;;;;;;5053211;28;20175;-68
2024/01/30 09:34:46;;;;;;;5.70;3.50;;;16.50;54.80;;;;;;5053578;28;20174;-67
2024/01/30 09:37:12;;;;;;;3.20;2.90;;;16.50;54.80;;;;;;5052953;28;20171;-67
2024/01/30 09:39:37;;;;;;;3.47;3.17;;;16.50;54.80;;;;;;5053048;28;20182;-67
2024/01/30 09:42:20;;;;;;;3.38;2.92;;;16.50;55.00;;;;;;5053378;28;20194;-66
2024/01/30 09:44:45;;;;;;;4.38;3.35;;;16.50;55.10;;;;;;5052631;28;20171;-69
2024/01/30 09:47:11;;;;;;;2.97;2.78;;;16.50;55.10;;;;;;5052042;28;20681;-64
2024/01/30 09:49:36;;;;;;;3.45;3.15;;;16.60;55.00;;;;;;5051692;28;20464;-66
2024/01/30 09:52:02;;;;;;;5.57;3.22;;;16.70;55.00;;;;;;5052470;28;20167;-65
2024/01/30 09:54:33;;;;;;;3.83;3.17;;;16.70;54.90;;;;;;5052551;28;20215;-67
2024/01/30 09:56:59;;;;;;;3.42;3.13;;;16.80;55.00;;;;;;5053001;28;20241;-69
2024/01/30 09:59:24;;;;;;;3.63;3.33;;;16.80;55.00;;;;;;5052282;28;20167;-68
2024/01/30 10:01:51;;;;;;;3.90;2.80;;;16.80;55.00;;;;;;5053225;28;20245;-68
2024/01/30 10:04:16;;;;;;;4.03;3.33;;;16.80;55.10;;;;;;5052270;28;20233;-70
2024/01/30 10:06:42;;;;;;;4.22;3.30;;;16.70;55.20;;;;;;5053016;28;20614;-69
2024/01/30 10:09:09;;;;;;;3.45;3.05;;;16.70;55.30;;;;;;5053145;28;20168;-69
2024/01/30 10:11:35;;;;;;;3.00;2.67;;;16.70;55.30;;;;;;5051774;28;20939;-69
2024/01/30 10:14:01;;;;;;;4.25;3.28;;;16.70;55.30;;;;;;5053168;28;20175;-68
2024/01/30 10:16:26;;;;;;;3.75;3.35;;;16.60;55.40;;;;;;5051745;28;20183;-68
2024/01/30 10:18:52;;;;;;;3.35;3.00;;;16.60;55.90;;;;;;5050645;28;20194;-69
2024/01/30 10:21:18;;;;;;;3.47;3.15;;;16.60;55.30;;;;;;5052468;28;20179;-69
2024/01/30 10:23:44;;;;;;;4.25;3.13;;;16.60;55.30;;;;;;5052644;28;20172;-68
2024/01/30 10:26:10;;;;;;;4.18;3.05;;;16.60;55.30;;;;;;5051644;28;20211;-69
2024/01/30 10:28:36;;;;;;;3.50;3.20;;;16.60;55.40;;;;;;5052146;28;20274;-68
2024/01/30 10:31:03;;;;;;;6.97;3.00;;;16.60;55.30;;;;;;5052571;28;20176;-69
2024/01/30 10:33:29;;;;;;;4.82;2.83;;;16.60;55.40;;;;;;5051385;28;20183;-66
2024/01/30 10:36:06;;;;;;;4.47;2.97;;;16.60;55.40;;;;;;5052334;28;20226;-66
2024/01/30 10:38:32;;;;;;;3.30;3.00;;;16.50;55.40;;;;;;5051867;28;20179;-68
2024/01/30 10:40:59;;;;;;;3.60;3.30;;;16.50;55.50;;;;;;5051816;28;20179;-68
2024/01/30 10:43:30;;;;;;;3.30;2.85;;;16.50;55.60;;;;;;5052026;28;20183;-67
2024/01/30 10:45:55;;;;;;;4.13;3.55;;;16.50;55.60;;;;;;5050852;28;20622;-67
2024/01/30 10:48:22;;;;;;;4.32;3.25;;;16.50;55.60;;;;;;5049693;28;20163;-67
2024/01/30 10:50:50;;;;;;;3.45;3.15;;;16.50;55.60;;;;;;5050706;28;20260;-67
2024/01/30 10:53:15;;;;;;;4.63;3.00;;;16.50;55.70;;;;;;5051851;28;20198;-67
2024/01/30 10:55:41;;;;;;;3.35;2.80;;;16.50;55.70;;;;;;5049882;28;20296;-67
2024/01/30 10:58:07;;;;;;;4.35;3.05;;;16.50;55.70;;;;;;5052008;28;20598;-68
2024/01/30 11:00:34;;;;;;;4.13;3.47;;;16.40;55.70;;;;;;5051023;28;20199;-67
2024/01/30 11:02:59;;;;;;;3.80;3.22;;;16.50;55.70;;;;;;5050728;28;20182;-69
2024/01/30 11:05:27;;;;;;;3.20;2.90;;;16.50;55.70;;;;;;5050301;28;20179;-68
2024/01/30 11:07:53;;;;;;;3.63;3.30;;;16.50;55.70;;;;;;5050973;28;20308;-68
2024/01/30 11:10:19;;;;;;;3.05;2.85;;;16.50;55.80;;;;;;5051477;28;20215;-68
2024/01/30 11:12:46;;;;;;;4.38;2.90;;;16.50;55.80;;;;;;5051926;28;20191;-68
2024/01/30 11:15:16;;;;;;;5.35;3.13;;;16.40;55.80;;;;;;5051067;28;20544;-68
2024/01/30 11:17:43;;;;;;;3.90;3.22;;;16.40;55.80;;;;;;5051560;28;20643;-67
2024/01/30 11:20:21;;;;;;;3.28;2.97;;;16.40;55.90;;;;;;5051698;28;20175;-67
2024/01/30 11:22:49;;;;;;;3.38;3.08;;;16.40;56.10;;;;;;5051000;28;20182;-67
2024/01/30 11:25:15;;;;;;;4.72;3.33;;;16.50;56.20;;;;;;5051655;28;20206;-67
2024/01/30 11:27:44;;;;;;;4.25;2.95;;;16.40;56.40;;;;;;5051417;28;20215;-67
2024/01/30 11:30:09;;;;;;;3.35;3.05;;;16.40;56.10;;;;;;5050958;28;20171;-68
2024/01/30 11:32:35;;;;;;;3.40;2.42;;;16.50;56.20;;;;;;5050159;28;20179;-68
2024/01/30 11:35:05;;;;;;;4.13;3.17;;;16.40;56.20;;;;;;5051408;28;20175;-68
2024/01/30 11:37:33;;;;;;;4.75;2.95;;;16.40;56.20;;;;;;5050821;28;20182;-69
2024/01/30 11:39:59;;;;;;;5.78;3.10;;;16.50;56.50;;;;;;5050347;28;20168;-68
2024/01/30 11:42:25;;;;;;;3.63;2.88;;;16.40;56.40;;;;;;5050849;28;20259;-69
2024/01/30 11:44:50;;;;;;;7.68;3.35;;;16.50;56.90;;;;;;5049652;28;20189;-69
2024/01/30 11:47:16;;;;;;;3.75;2.83;;;16.40;56.90;;;;;;5050875;28;20294;-68
2024/01/30 11:49:42;;;;;;;5.03;3.10;;;16.40;56.40;;;;;;5050712;28;20199;-67
2024/01/30 11:52:08;;;;;;;3.65;2.67;;;16.40;57.00;;;;;;5049421;28;20214;-67
2024/01/30 11:54:33;;;;;;;4.53;2.75;;;16.50;56.40;;;;;;5050667;28;20276;-68
2024/01/30 11:56:59;;;;;;;4.80;3.03;;;16.50;56.30;;;;;;5050608;28;20221;-68
2024/01/30 11:59:24;;;;;;;3.60;3.30;;;16.50;56.20;;;;;;5051138;28;20202;-68
2024/01/30 12:01:52;;;;;;;4.47;3.28;;;16.50;56.40;;;;;;5051366;28;20211;-69
2024/01/30 12:04:20;;;;;;;4.28;3.30;;;16.70;56.40;;;;;;5050417;28;20175;-69
2024/01/30 12:06:45;;;;;;;4.35;3.00;;;16.70;56.40;;;;;;5051114;28;20222;-68
2024/01/30 12:09:13;;;;;;;5.13;2.90;;;16.90;56.50;;;;;;5050071;28;20171;-69
2024/01/30 12:11:48;;;;;;;4.35;3.05;;;17.10;56.50;;;;;;5050451;28;20217;-68
2024/01/30 12:14:13;;;;;;;5.18;2.78;;;17.20;56.20;;;;;;5050918;28;20278;-68
2024/01/30 12:16:39;;;;;;;3.35;2.70;;;17.40;56.00;;;;;;5050000;28;20686;-69
2024/01/30 12:19:04;;;;;;;3.53;2.90;;;17.60;55.80;;;;;;5050465;28;20509;-69
2024/01/30 12:21:30;;;;;;;3.90;2.80;;;17.80;55.40;;;;;;5050752;28;20544;-67
2024/01/30 12:23:57;;;;;;;2.85;2.60;;;17.90;55.20;;;;;;5051142;28;20179;-67
2024/01/30 12:26:23;;;;;;;5.45;3.08;;;18.00;55.00;;;;;;5050051;28;20214;-66
2024/01/30 12:28:49;;;;;;;5.50;3.28;;;18.10;55.00;;;;;;5049826;28;20175;-67
2024/01/30 12:31:15;;;;;;;2.92;2.65;;;18.10;55.00;;;;;;5050825;28;20176;-66
2024/01/30 12:33:41;;;;;;;5.13;2.78;;;18.20;54.80;;;;;;5050303;28;20544;-68
2024/01/30 12:36:06;;;;;;;3.55;2.80;;;18.30;54.70;;;;;;5051328;28;20182;-68
2024/01/30 12:38:35;;;;;;;4.45;3.22;;;18.50;54.50;;;;;;5049345;28;20172;-69
2024/01/30 12:41:00;;;;;;;5.18;2.90;;;18.50;54.30;;;;;;5052249;28;20189;-69